Time;durP1;ratioP1;P1;durP2;ratioP2;P2;SDS_P1;SDS_P2;PMS_P1;PMS_P2;Temp;Humidity;BMP_temperature;BMP_pressure;BME280_temperature;BME280_humidity;BME280_pressure;Samples;Min_cycle;Max_cycle;Signal;HPM_P1;HPM_P2
2021/03/21 00:00:30;;;;;;;0.20;0.20;;;;;;;1.77;77.15;93231.44;5110363;28;20519;-60
2021/03/21 00:02:56;;;;;;;0.20;0.20;;;;;;;1.78;76.90;93224.75;5111474;28;20035;-60
2021/03/21 00:05:22;;;;;;;0.20;0.20;;;;;;;1.78;77.37;93202.22;5111535;28;20107;-60
2021/03/21 00:07:56;;;;;;;0.20;0.20;;;;;;;1.69;76.89;93176.00;5111362;28;20033;-60
2021/03/21 00:10:22;;;;;;;0.20;0.20;;;;;;;1.76;76.79;93180.97;5111277;28;20522;-59
2021/03/21 00:12:48;;;;;;;0.30;0.30;;;;;;;1.76;76.42;93196.53;5111435;28;20023;-59
2021/03/21 00:15:13;;;;;;;0.20;0.20;;;;;;;1.78;77.78;93207.66;5094426;28;20080;-58
2021/03/21 00:17:39;;;;;;;0.30;0.30;;;;;;;1.87;76.78;93204.69;5111234;28;20020;-59
2021/03/21 00:20:06;;;;;;;0.20;0.20;;;;;;;1.86;76.80;93203.97;5111457;28;20035;-59
2021/03/21 00:22:32;;;;;;;0.20;0.20;;;;;;;1.85;76.22;93205.19;5111187;28;20576;-60
2021/03/21 00:24:57;;;;;;;0.20;0.20;;;;;;;1.92;76.19;93201.22;5110930;28;20051;-61
2021/03/21 00:27:23;;;;;;;0.35;0.35;;;;;;;2.04;76.21;93197.97;5111314;28;20514;-58
2021/03/21 00:29:48;;;;;;;0.20;0.20;;;;;;;2.11;75.54;93188.53;5111232;28;20035;-60
2021/03/21 00:32:14;;;;;;;0.55;0.55;;;;;;;2.11;75.12;93191.25;5111016;28;20110;-59
2021/03/21 00:34:39;;;;;;;0.40;0.40;;;;;;;2.07;75.51;93193.50;5111122;28;20043;-59
2021/03/21 00:37:05;;;;;;;0.25;0.25;;;;;;;2.10;75.68;93204.13;5111044;28;20026;-61
2021/03/21 00:39:30;;;;;;;1.27;0.82;;;;;;;2.16;75.33;93188.53;5110758;28;20023;-61
2021/03/21 00:41:56;;;;;;;2.67;1.33;;;;;;;2.13;74.63;93184.06;5110624;28;20028;-60
2021/03/21 00:44:21;;;;;;;0.50;0.50;;;;;;;2.05;75.54;93185.09;5111049;28;20046;-60
2021/03/21 00:46:47;;;;;;;0.50;0.50;;;;;;;1.95;76.36;93183.91;5109064;28;20020;-60
2021/03/21 00:49:12;;;;;;;3.95;0.63;;;;;;;1.99;76.45;93176.91;5110775;28;20400;-60
2021/03/21 00:51:37;;;;;;;1.17;1.08;;;;;;;1.87;76.27;93161.13;5110794;28;20016;-60
2021/03/21 00:54:03;;;;;;;0.60;0.60;;;;;;;1.93;76.71;93167.28;5110779;28;20024;-59
2021/03/21 00:56:33;;;;;;;1.75;1.65;;;;;;;1.93;76.11;93161.84;5110870;28;20026;-60
2021/03/21 00:58:59;;;;;;;0.60;0.60;;;;;;;1.85;75.67;93160.88;5090915;28;20016;-60
2021/03/21 01:01:25;;;;;;;1.55;0.60;;;;;;;1.86;75.68;93170.56;5109301;28;20018;-60
2021/03/21 01:03:51;;;;;;;0.40;0.40;;;;;;;1.84;76.67;93167.59;5101813;28;20028;-61
2021/03/21 01:06:17;;;;;;;0.20;0.20;;;;;;;1.95;75.97;93181.88;5102824;28;20093;-60
2021/03/21 01:08:42;;;;;;;0.30;0.30;;;;;;;2.05;75.36;93174.19;5110551;28;20492;-60
2021/03/21 01:11:11;;;;;;;1.08;1.08;;;;;;;1.96;75.32;93186.09;5111825;28;20119;-60
2021/03/21 01:13:36;;;;;;;0.37;0.37;;;;;;;1.97;75.01;93176.69;5103275;28;20051;-60
2021/03/21 01:16:07;;;;;;;0.73;0.73;;;;;;;1.98;76.15;93177.44;5107646;27;20312;-60
2021/03/21 01:18:33;;;;;;;0.20;0.20;;;;;;;1.90;75.39;93195.53;5110089;28;20538;-61
2021/03/21 01:21:00;;;;;;;0.28;0.28;;;;;;;1.85;76.03;93155.44;5096362;28;20031;-60
2021/03/21 01:23:26;;;;;;;0.30;0.30;;;;;;;1.83;76.31;93188.63;5114601;28;20026;-60
2021/03/21 01:25:52;;;;;;;0.30;0.30;;;;;;;1.82;76.40;93183.69;5114343;28;20047;-60
2021/03/21 01:28:29;;;;;;;0.30;0.30;;;;;;;1.97;75.48;93178.69;5111291;28;20519;-59
2021/03/21 01:30:57;;;;;;;0.20;0.20;;;;;;;1.84;75.48;93187.38;5114441;28;20107;-59
2021/03/21 01:33:25;;;;;;;1.15;0.57;;;;;;;1.85;75.72;93175.25;5114389;28;20019;-59
2021/03/21 01:35:51;;;;;;;0.20;0.20;;;;;;;1.88;75.44;93140.84;5111229;28;20386;-59
2021/03/21 01:38:18;;;;;;;0.28;0.28;;;;;;;1.86;76.35;93154.97;5108261;28;20452;-59
2021/03/21 01:40:44;;;;;;;0.20;0.20;;;;;;;1.82;75.90;93134.69;5118306;27;20055;-58
2021/03/21 01:43:14;;;;;;;0.40;0.40;;;;;;;1.73;76.57;93151.28;5113437;27;20507;-60
2021/03/21 01:45:49;;;;;;;0.20;0.20;;;;;;;1.77;76.02;93146.31;5114106;28;20023;-60
2021/03/21 01:48:41;;;;;;;0.20;0.20;;;;;;;1.84;76.30;93187.38;5114105;28;20031;-61
2021/03/21 01:51:12;;;;;;;0.20;0.20;;;;;;;1.74;76.42;93196.28;5109807;28;20035;-61
2021/03/21 01:53:40;;;;;;;0.20;0.20;;;;;;;1.85;76.60;93193.56;5114169;28;20026;-60
2021/03/21 01:56:07;;;;;;;0.30;0.30;;;;;;;1.83;75.78;93199.50;5092491;28;20043;-59
2021/03/21 01:58:33;;;;;;;0.20;0.20;;;;;;;1.72;76.09;93168.84;5095825;28;20107;-59
2021/03/21 02:01:02;;;;;;;0.20;0.20;;;;;;;1.65;76.15;93174.78;5093625;28;20512;-60
2021/03/21 02:03:27;;;;;;;0.47;0.47;;;;;;;1.66;77.32;93192.59;5113692;28;20542;-59
2021/03/21 02:06:22;;;;;;;0.20;0.20;;;;;;;1.67;76.26;93178.50;5122210;27;20027;-60
2021/03/21 02:08:54;;;;;;;0.30;0.30;;;;;;;1.69;76.49;93167.13;5061932;28;20040;-59
2021/03/21 02:11:28;;;;;;;0.20;0.20;;;;;;;1.72;77.13;93147.81;5079674;28;20015;-60
2021/03/21 02:14:02;;;;;;;0.20;0.20;;;;;;;1.75;76.17;93140.63;5113726;28;20027;-60
2021/03/21 02:16:36;;;;;;;0.30;0.30;;;;;;;1.62;76.58;93132.25;5113650;28;20020;-60
2021/03/21 02:19:29;;;;;;;0.85;0.38;;;;;;;1.77;76.73;93119.84;5095362;28;20024;-60
2021/03/21 02:21:58;;;;;;;0.30;0.30;;;;;;;1.77;75.50;93127.28;5113202;28;20035;-60
2021/03/21 02:24:51;;;;;;;0.30;0.30;;;;;;;1.73;76.25;93134.97;5091390;28;20047;-61
2021/03/21 02:27:35;;;;;;;0.20;0.20;;;;;;;1.72;76.03;93150.53;5075620;28;20036;-61
2021/03/21 02:30:36;;;;;;;0.20;0.20;;;;;;;1.75;75.03;93156.97;5103303;28;20062;-61
2021/03/21 02:33:09;;;;;;;0.20;0.20;;;;;;;1.67;76.03;93164.16;5010689;28;20057;-64
2021/03/21 02:35:57;;;;;;;0.20;0.20;;;;;;;1.77;75.67;93154.50;5096964;28;20462;-60
2021/03/21 02:38:27;;;;;;;0.20;0.20;;;;;;;1.71;75.46;93161.94;5091640;28;20032;-62
2021/03/21 02:41:07;;;;;;;0.20;0.20;;;;;;;1.80;75.17;93164.38;5110363;28;20031;-65
2021/03/21 02:43:37;;;;;;;0.20;0.20;;;;;;;1.77;75.68;93160.69;5094894;28;20084;-63
2021/03/21 02:46:10;;;;;;;0.20;0.20;;;;;;;1.77;75.20;93159.94;5087189;28;20439;-63
2021/03/21 02:48:42;;;;;;;0.20;0.20;;;;;;;1.70;75.45;93149.56;5094731;28;20110;-62
2021/03/21 02:51:15;;;;;;;0.20;0.20;;;;;;;1.61;75.67;93145.13;5112842;28;20119;-62
2021/03/21 02:53:49;;;;;;;0.65;0.65;;;;;;;1.62;75.55;93165.66;5091530;28;20097;-63
2021/03/21 02:56:20;;;;;;;0.20;0.20;;;;;;;1.53;76.22;93152.31;5091252;28;20035;-62
2021/03/21 02:58:50;;;;;;;0.60;0.60;;;;;;;1.65;76.07;93163.91;5108115;28;20039;-62
2021/03/21 03:01:34;;;;;;;0.20;0.20;;;;;;;1.57;76.39;93157.50;5075001;28;20028;-62
2021/03/21 03:04:07;;;;;;;0.10;0.10;;;;;;;1.60;75.18;93165.41;5094634;28;20507;-62
2021/03/21 03:06:44;;;;;;;0.20;0.20;;;;;;;1.67;75.53;93161.44;5112609;28;20167;-62
2021/03/21 03:09:16;;;;;;;0.20;0.20;;;;;;;1.70;75.76;93163.16;5094065;28;20106;-62
2021/03/21 03:12:04;;;;;;;0.30;0.30;;;;;;;1.63;76.08;93160.94;5094543;28;20027;-62
2021/03/21 03:14:34;;;;;;;0.47;0.47;;;;;;;1.66;74.73;93149.81;5090848;28;20036;-62
2021/03/21 03:17:22;;;;;;;;;;;;;;;1.57;74.49;93136.47;5094586;28;20024;-62
2021/03/21 03:20:18;;;;;;;0.25;0.25;;;;;;;1.63;75.05;93136.44;5101267;28;19939;-62
2021/03/21 03:23:07;;;;;;;0.20;0.20;;;;;;;1.60;75.82;93123.88;5112405;28;20393;-62
2021/03/21 03:25:33;;;;;;;;;;;;;;;1.50;75.35;93135.00;5076998;28;20044;-62
2021/03/21 03:28:30;;;;;;;0.30;0.30;;;;;;;1.44;75.33;93128.84;5101541;28;19912;-63
2021/03/21 03:30:59;;;;;;;0.20;0.20;;;;;;;1.60;76.12;93142.91;5111420;28;20401;-63
2021/03/21 03:33:25;;;;;;;0.55;0.55;;;;;;;1.54;76.23;93132.03;5111790;28;20023;-62
2021/03/21 03:35:52;;;;;;;0.22;0.22;;;;;;;1.66;76.55;93133.50;5112292;28;20074;-62
2021/03/21 03:38:17;;;;;;;0.22;0.22;;;;;;;1.66;76.22;93128.06;5112105;28;20035;-62
2021/03/21 03:40:45;;;;;;;0.85;0.85;;;;;;;1.63;75.73;93129.03;5111911;28;20106;-62
2021/03/21 03:43:20;;;;;;;0.20;0.20;;;;;;;1.70;75.33;93133.22;5111797;28;20037;-62
2021/03/21 03:46:03;;;;;;;0.28;0.28;;;;;;;1.73;75.88;93137.69;5112015;28;20035;-62
2021/03/21 03:48:52;;;;;;;0.85;0.85;;;;;;;1.79;75.64;93141.13;5115395;27;20488;-62
2021/03/21 03:51:56;;;;;;;0.20;0.20;;;;;;;1.81;75.42;93155.72;5073489;28;20074;-62
2021/03/21 03:54:29;;;;;;;0.28;0.28;;;;;;;1.72;75.16;93150.53;5084944;28;20072;-62
2021/03/21 03:57:01;;;;;;;0.30;0.30;;;;;;;1.69;75.39;93153.53;5090965;28;20401;-62
2021/03/21 03:59:40;;;;;;;0.70;0.70;;;;;;;1.86;75.48;93163.13;5093173;28;20432;-62
2021/03/21 04:02:08;;;;;;;0.20;0.20;;;;;;;1.82;75.39;93165.34;5111295;28;20030;-62
2021/03/21 04:04:36;;;;;;;0.20;0.20;;;;;;;1.65;74.64;93153.03;5090060;28;20024;-61
2021/03/21 04:07:18;;;;;;;0.30;0.30;;;;;;;1.50;75.58;93151.31;5093265;28;20484;-61
2021/03/21 04:09:50;;;;;;;0.20;0.20;;;;;;;1.66;76.17;93170.84;5093389;28;20020;-61
2021/03/21 04:12:20;;;;;;;0.30;0.30;;;;;;;1.67;76.19;93173.06;5090077;28;20120;-62
2021/03/21 04:14:52;;;;;;;0.75;0.75;;;;;;;1.67;75.77;93175.78;5093218;28;20024;-62
2021/03/21 04:17:22;;;;;;;0.20;0.20;;;;;;;1.57;75.64;93152.81;5089786;28;20024;-62
2021/03/21 04:19:53;;;;;;;0.80;0.57;;;;;;;1.65;75.33;93159.22;5093384;28;20063;-61
2021/03/21 04:22:24;;;;;;;0.20;0.20;;;;;;;1.63;75.64;93160.94;5093439;28;20031;-61
2021/03/21 04:25:12;;;;;;;0.20;0.20;;;;;;;1.62;75.95;93165.66;5089717;28;20032;-60
2021/03/21 04:27:53;;;;;;;0.55;0.55;;;;;;;1.59;75.23;93149.56;5089453;28;20024;-61
2021/03/21 04:30:25;;;;;;;0.20;0.20;;;;;;;1.57;75.70;93155.53;5089381;28;20012;-60
2021/03/21 04:32:52;;;;;;;0.85;0.85;;;;;;;1.27;75.91;93119.22;5108055;28;20023;-60
2021/03/21 04:35:29;;;;;;;0.85;0.85;;;;;;;1.58;76.04;93157.03;5111053;28;20027;-60
2021/03/21 04:38:01;;;;;;;0.35;0.35;;;;;;;1.50;75.73;93159.50;5092803;28;20033;-60
2021/03/21 04:40:28;;;;;;;0.20;0.20;;;;;;;1.50;75.13;93169.63;5082944;28;20032;-60
2021/03/21 04:43:08;;;;;;;0.45;0.45;;;;;;;1.43;75.44;93162.72;5108113;28;20519;-52
2021/03/21 04:45:43;;;;;;;0.60;0.60;;;;;;;1.56;74.58;93159.47;5092321;28;20028;-59
2021/03/21 04:48:15;;;;;;;0.28;0.28;;;;;;;1.44;74.96;93145.16;5089529;28;20080;-58
2021/03/21 04:50:41;;;;;;;0.20;0.20;;;;;;;1.37;75.78;93153.81;5092715;28;20035;-59
2021/03/21 04:53:21;;;;;;;0.30;0.30;;;;;;;1.38;75.76;93152.59;5091972;28;20039;-59
2021/03/21 04:55:53;;;;;;;0.50;0.50;;;;;;;1.44;75.73;93149.84;5092638;28;20027;-59
2021/03/21 04:58:40;;;;;;;0.75;0.75;;;;;;;1.56;75.81;93153.31;5089528;28;20035;-59
2021/03/21 05:01:16;;;;;;;0.20;0.20;;;;;;;1.58;74.81;93150.81;5091426;28;20062;-56
2021/03/21 05:03:45;;;;;;;0.20;0.20;;;;;;;1.50;75.58;93159.50;5089249;28;20503;-57
2021/03/21 05:06:18;;;;;;;0.30;0.30;;;;;;;1.62;75.89;93164.91;5092498;28;20028;-57
2021/03/21 05:08:50;;;;;;;0.30;0.30;;;;;;;1.69;74.81;93161.69;5089224;28;20024;-57
2021/03/21 05:11:16;;;;;;;0.20;0.20;;;;;;;1.74;75.41;93161.66;5074096;28;20024;-57
2021/03/21 05:13:58;;;;;;;0.28;0.28;;;;;;;1.78;74.09;93153.97;5088038;28;20032;-57
2021/03/21 05:16:32;;;;;;;0.20;0.20;;;;;;;1.67;74.02;93151.28;5084801;28;20028;-57
2021/03/21 05:19:25;;;;;;;0.20;0.20;;;;;;;1.70;74.07;93160.44;5088546;28;20038;-57
2021/03/21 05:22:05;;;;;;;0.30;0.30;;;;;;;1.86;75.10;93159.66;5117335;28;20407;-56
2021/03/21 05:24:46;;;;;;;0.88;0.82;;;;;;;1.71;74.38;93140.88;5085553;28;20027;-57
2021/03/21 05:27:23;;;;;;;0.80;0.80;;;;;;;1.74;74.49;93158.94;5103935;28;20043;-57
2021/03/21 05:30:19;;;;;;;0.40;0.40;;;;;;;1.81;74.86;93152.25;5083246;28;20516;-56
2021/03/21 05:32:49;;;;;;;0.45;0.45;;;;;;;1.87;74.27;93142.06;5082772;28;20462;-57
2021/03/21 05:35:23;;;;;;;0.38;0.38;;;;;;;1.94;73.45;93136.88;5098530;28;20100;-57
2021/03/21 05:38:28;;;;;;;0.45;0.45;;;;;;;1.99;74.27;93125.19;5082939;28;20027;-56
2021/03/21 05:41:15;;;;;;;0.68;0.68;;;;;;;2.10;74.50;93121.72;5052400;28;20115;-56
2021/03/21 05:43:55;;;;;;;0.40;0.40;;;;;;;2.12;73.57;93119.22;5100852;28;20015;-56
2021/03/21 05:46:45;;;;;;;0.63;0.63;;;;;;;2.17;73.54;93124.63;5100828;28;20028;-61
2021/03/21 05:49:19;;;;;;;0.60;0.60;;;;;;;2.25;73.64;93117.41;5103508;28;20123;-60
2021/03/21 05:51:56;;;;;;;0.30;0.30;;;;;;;2.31;73.78;93125.56;5101411;28;20028;-61
2021/03/21 05:54:54;;;;;;;1.13;1.08;;;;;;;2.34;73.81;93124.53;5112043;28;20069;-61
2021/03/21 05:57:28;;;;;;;3.03;1.90;;;;;;;2.36;73.33;93135.66;5115351;28;20094;-61
2021/03/21 06:00:23;;;;;;;1.60;1.10;;;;;;;2.44;72.67;93139.38;5110016;28;20405;-61
2021/03/21 06:03:07;;;;;;;1.55;1.50;;;;;;;2.40;72.81;93144.34;5092480;28;20036;-60
2021/03/21 06:05:38;;;;;;;0.65;0.65;;;;;;;2.33;73.34;93149.56;5088485;28;20020;-60
2021/03/21 06:08:31;;;;;;;0.20;0.20;;;;;;;2.46;73.27;93160.66;5109853;28;20472;-59
2021/03/21 06:11:08;;;;;;;0.20;0.20;;;;;;;2.40;73.67;93163.41;5111456;28;20023;-59
2021/03/21 06:13:52;;;;;;;0.47;0.47;;;;;;;2.52;73.44;93175.72;5095399;28;20094;-59
2021/03/21 06:16:52;;;;;;;0.20;0.20;;;;;;;2.54;72.85;93186.13;5113797;28;20504;-59
2021/03/21 06:19:45;;;;;;;0.30;0.30;;;;;;;2.63;72.65;93172.94;5097325;28;20019;-59
2021/03/21 06:22:26;;;;;;;0.65;0.65;;;;;;;2.57;72.63;93152.41;5113674;28;20016;-59
2021/03/21 06:24:58;;;;;;;0.20;0.20;;;;;;;2.43;74.26;93135.16;5092265;28;20027;-58
2021/03/21 06:28:01;;;;;;;0.35;0.35;;;;;;;2.63;73.36;93136.75;5114224;28;20464;-59
2021/03/21 06:30:47;;;;;;;0.43;0.43;;;;;;;2.82;72.29;93126.72;5113589;28;20023;-59
2021/03/21 06:33:19;;;;;;;1.55;0.75;;;;;;;2.92;72.01;93134.06;5092201;28;20024;-59
2021/03/21 06:36:02;;;;;;;1.38;1.20;;;;;;;2.95;72.76;93143.97;5097043;28;20042;-59
2021/03/21 06:38:56;;;;;;;0.65;0.63;;;;;;;3.13;72.45;93161.72;5095232;28;20030;-59
2021/03/21 06:41:48;;;;;;;1.88;1.75;;;;;;;3.28;72.53;93174.97;5119241;27;20047;-59
2021/03/21 06:44:32;;;;;;;1.00;0.95;;;;;;;3.39;72.25;93183.06;5120696;27;20050;-58
2021/03/21 06:47:16;;;;;;;0.30;0.30;;;;;;;3.50;71.40;93178.28;5110999;28;20028;-54
2021/03/21 06:50:02;;;;;;;0.75;0.75;;;;;;;3.55;70.91;93185.66;5112899;28;20409;-54
2021/03/21 06:52:31;;;;;;;9.07;4.20;;;;;;;3.43;70.42;93173.38;5112980;28;20072;-49
2021/03/21 06:55:08;;;;;;;3.03;2.25;;;;;;;3.16;71.93;93177.06;5112780;28;20027;-53
2021/03/21 06:58:10;;;;;;;1.00;1.00;;;;;;;3.39;70.71;93181.09;5091409;28;20020;-55
2021/03/21 07:00:44;;;;;;;0.93;0.93;;;;;;;3.42;70.51;93171.16;5106395;28;20047;-54
2021/03/21 07:03:44;;;;;;;0.50;0.50;;;;;;;2.96;71.30;93167.28;5111914;28;20094;-50
2021/03/21 07:06:47;;;;;;;0.30;0.30;;;;;;;3.20;72.72;93168.59;5111087;28;20385;-52
2021/03/21 07:09:45;;;;;;;0.65;0.43;;;;;;;3.22;72.33;93161.41;5100749;27;20078;-55
2021/03/21 07:12:19;;;;;;;0.30;0.30;;;;;;;3.23;71.12;93164.88;5031148;27;20095;-59
2021/03/21 07:15:10;;;;;;;1.13;0.65;;;;;;;3.15;71.22;93156.47;5119804;27;20015;-58
2021/03/21 07:17:56;;;;;;;0.30;0.30;;;;;;;3.45;70.42;93161.94;5101643;28;20024;-59
2021/03/21 07:20:49;;;;;;;0.20;0.20;;;;;;;3.57;70.63;93157.88;5080386;28;20103;-58
2021/03/21 07:23:24;;;;;;;0.20;0.20;;;;;;;3.72;70.60;93153.50;5107704;27;20028;-58
2021/03/21 07:26:01;;;;;;;0.25;0.25;;;;;;;3.85;69.05;93155.59;5115450;27;20043;-58
2021/03/21 07:29:04;;;;;;;0.20;0.20;;;;;;;3.98;69.58;93152.97;5111266;28;20038;-58
2021/03/21 07:31:35;;;;;;;0.30;0.30;;;;;;;4.16;69.87;93154.28;5096715;28;20024;-59
2021/03/21 07:34:18;;;;;;;0.50;0.50;;;;;;;4.18;69.70;93155.22;5093065;28;20039;-59
2021/03/21 07:36:50;;;;;;;0.43;0.43;;;;;;;3.94;70.56;93151.78;5110807;28;20385;-60
2021/03/21 07:39:20;;;;;;;0.10;0.10;;;;;;;4.01;68.26;93146.47;5087522;28;20063;-60
2021/03/21 07:42:18;;;;;;;0.38;0.38;;;;;;;4.23;68.57;93142.75;5092931;28;20036;-60
2021/03/21 07:45:02;;;;;;;0.20;0.20;;;;;;;4.35;67.44;93138.66;5111048;28;20038;-60
2021/03/21 07:47:55;;;;;;;0.20;0.20;;;;;;;4.44;66.42;93149.94;5096055;28;20024;-59
2021/03/21 07:50:33;;;;;;;0.40;0.40;;;;;;;4.37;66.96;93144.34;5092460;28;20492;-60
2021/03/21 07:52:58;;;;;;;0.20;0.20;;;;;;;4.25;66.74;93148.44;5110788;28;20033;-60
2021/03/21 07:55:36;;;;;;;0.30;0.30;;;;;;;4.31;66.98;93138.91;5110547;28;20102;-60
2021/03/21 07:58:48;;;;;;;0.65;0.65;;;;;;;4.26;66.95;93142.47;5072133;28;20028;-60
2021/03/21 08:01:16;;;;;;;0.20;0.20;;;;;;;4.18;67.87;93133.38;5099298;28;20108;-60
2021/03/21 08:03:55;;;;;;;0.20;0.20;;;;;;;4.33;67.96;93141.88;5110156;28;20066;-61
2021/03/21 08:06:25;;;;;;;0.38;0.38;;;;;;;4.24;66.92;93152.44;5088924;28;20044;-60
2021/03/21 08:08:59;;;;;;;0.40;0.40;;;;;;;4.20;67.91;93139.06;5107269;28;20028;-61
2021/03/21 08:11:28;;;;;;;0.28;0.28;;;;;;;4.27;68.63;93140.47;5091874;28;20041;-61
2021/03/21 08:14:25;;;;;;;0.28;0.28;;;;;;;3.95;69.03;93139.59;5110676;28;20061;-60
2021/03/21 08:16:53;;;;;;;0.17;0.17;;;;;;;3.91;68.63;93130.97;5090365;28;20043;-60
2021/03/21 08:19:37;;;;;;;0.40;0.40;;;;;;;3.95;69.67;93123.22;5104208;28;20031;-60
2021/03/21 08:22:03;;;;;;;0.20;0.20;;;;;;;3.96;69.89;93130.91;5085269;28;20037;-61
2021/03/21 08:24:31;;;;;;;0.65;0.45;;;;;;;3.71;69.16;93118.50;5086996;27;20026;-60
2021/03/21 08:26:58;;;;;;;0.30;0.30;;;;;;;3.63;69.26;93103.97;5107089;28;20108;-60
2021/03/21 08:29:26;;;;;;;0.20;0.20;;;;;;;3.49;70.99;93111.28;5107893;28;20062;-59
2021/03/21 08:32:00;;;;;;;0.77;0.77;;;;;;;3.95;70.69;93102.09;5109582;28;20028;-61
2021/03/21 08:34:45;;;;;;;0.20;0.20;;;;;;;3.83;68.78;93103.50;5109721;28;20142;-60
2021/03/21 08:37:16;;;;;;;0.20;0.20;;;;;;;3.76;69.07;93093.16;5116231;27;20051;-61
2021/03/21 08:39:46;;;;;;;0.82;0.73;;;;;;;3.65;70.25;93098.72;5109207;28;20037;-61
2021/03/21 08:42:27;;;;;;;0.20;0.20;;;;;;;3.79;70.74;93103.75;5091497;28;20366;-60
2021/03/21 08:45:07;;;;;;;0.70;0.70;;;;;;;4.01;69.68;93097.31;5109396;28;20042;-60
2021/03/21 08:47:32;;;;;;;0.28;0.28;;;;;;;3.95;69.36;93095.91;5077564;28;20029;-59
2021/03/21 08:50:00;;;;;;;0.20;0.20;;;;;;;3.67;70.49;93098.94;5105417;28;20428;-59
2021/03/21 08:52:38;;;;;;;0.10;0.10;;;;;;;3.83;69.76;93092.56;5080485;28;20034;-62
2021/03/21 08:55:03;;;;;;;0.20;0.20;;;;;;;3.91;70.08;93092.72;5089319;28;20039;-61
2021/03/21 08:57:32;;;;;;;0.63;0.63;;;;;;;3.71;70.51;93081.03;5108324;28;20543;-60
2021/03/21 09:00:18;;;;;;;0.20;0.20;;;;;;;3.92;70.06;93072.38;5108761;28;20420;-61
2021/03/21 09:02:44;;;;;;;0.20;0.20;;;;;;;3.89;69.72;93076.84;5109227;28;20035;-60
2021/03/21 09:05:12;;;;;;;0.20;0.20;;;;;;;3.81;71.28;93075.97;5107863;28;20023;-60
2021/03/21 09:07:41;;;;;;;0.55;0.35;;;;;;;4.16;70.03;93080.50;5109148;28;20404;-61
2021/03/21 09:10:25;;;;;;;0.30;0.30;;;;;;;4.04;68.82;93073.69;5107708;28;20042;-61
2021/03/21 09:13:02;;;;;;;0.20;0.20;;;;;;;3.59;70.03;93076.22;5108575;28;20031;-61
2021/03/21 09:15:31;;;;;;;0.20;0.20;;;;;;;3.77;71.12;93070.03;5108584;28;20027;-63
2021/03/21 09:18:23;;;;;;;0.20;0.20;;;;;;;4.05;70.05;93075.19;5108971;28;20471;-62
2021/03/21 09:20:54;;;;;;;0.20;0.20;;;;;;;4.02;70.26;93071.50;5097911;28;20032;-59
2021/03/21 09:23:28;;;;;;;0.20;0.20;;;;;;;4.09;69.79;93051.03;5109061;28;20031;-61
2021/03/21 09:25:56;;;;;;;0.20;0.20;;;;;;;4.22;69.29;93051.13;5084385;28;20129;-61
2021/03/21 09:28:25;;;;;;;0.55;0.55;;;;;;;4.59;69.42;93049.06;5093297;28;20578;-60
2021/03/21 09:30:51;;;;;;;0.40;0.40;;;;;;;4.68;66.97;93047.94;5088646;28;20030;-63
2021/03/21 09:33:46;;;;;;;0.20;0.20;;;;;;;4.68;67.02;93044.50;5086655;28;20031;-63
2021/03/21 09:36:22;;;;;;;0.30;0.30;;;;;;;4.80;68.04;93049.28;5063575;28;20034;-60
2021/03/21 09:38:54;;;;;;;0.30;0.30;;;;;;;4.82;67.52;93035.06;5074834;28;20032;-60
2021/03/21 09:41:20;;;;;;;0.30;0.30;;;;;;;4.93;67.01;93045.84;5076928;28;20012;-61
2021/03/21 09:43:49;;;;;;;0.20;0.20;;;;;;;4.66;66.93;93038.81;5088275;28;20028;-61
2021/03/21 09:46:32;;;;;;;0.20;0.20;;;;;;;4.94;68.38;93047.28;5075242;28;20024;-61
2021/03/21 09:49:07;;;;;;;0.20;0.20;;;;;;;5.35;65.19;93042.88;5090252;28;20028;-62
2021/03/21 09:51:42;;;;;;;0.20;0.20;;;;;;;5.72;64.99;93033.72;5091598;28;20035;-62
2021/03/21 09:54:20;;;;;;;0.30;0.30;;;;;;;5.73;64.59;93026.25;5089438;28;20400;-60
2021/03/21 09:57:08;;;;;;;0.20;0.20;;;;;;;5.77;64.62;93040.34;5087771;28;20114;-59
2021/03/21 09:59:53;;;;;;;0.10;0.10;;;;;;;6.08;65.15;93053.22;5082961;28;20446;-60
2021/03/21 10:02:37;;;;;;;0.25;0.25;;;;;;;5.90;62.15;93051.34;5083453;28;20031;-59
2021/03/21 10:05:25;;;;;;;0.40;0.40;;;;;;;5.73;63.34;93046.16;5089855;28;20020;-62
2021/03/21 10:07:59;;;;;;;0.20;0.20;;;;;;;5.57;63.92;93060.16;5087248;28;20475;-60
2021/03/21 10:10:28;;;;;;;0.20;0.20;;;;;;;5.63;65.19;93067.00;5090920;28;20023;-59
2021/03/21 10:12:54;;;;;;;0.68;0.68;;;;;;;5.63;64.25;93071.75;5074031;28;20024;-60
2021/03/21 10:15:25;;;;;;;0.60;0.52;;;;;;;5.63;64.99;93067.00;5086526;28;20048;-60
2021/03/21 10:17:56;;;;;;;0.40;0.40;;;;;;;5.68;62.26;93060.69;5070427;28;20026;-58
2021/03/21 10:20:57;;;;;;;0.20;0.20;;;;;;;5.56;63.29;93064.91;5091055;28;20599;-57
2021/03/21 10:23:48;;;;;;;0.10;0.10;;;;;;;5.52;63.32;93044.56;5076398;28;20404;-56
2021/03/21 10:26:15;;;;;;;0.20;0.20;;;;;;;5.71;64.84;93035.00;5103368;28;20043;-56
2021/03/21 10:28:49;;;;;;;0.20;0.20;;;;;;;5.99;63.61;93037.94;5112015;28;20032;-55
2021/03/21 10:31:21;;;;;;;0.20;0.20;;;;;;;6.14;63.19;93034.66;5114990;27;20023;-58
2021/03/21 10:33:55;;;;;;;0.75;0.50;;;;;;;6.26;63.23;93038.63;5119280;27;20162;-60
2021/03/21 10:36:41;;;;;;;0.30;0.30;;;;;;;6.13;62.60;93028.44;5119048;27;20026;-58
2021/03/21 10:39:25;;;;;;;0.30;0.30;;;;;;;6.18;61.78;93028.84;5122233;27;20529;-60
2021/03/21 10:42:33;;;;;;;2.30;0.70;;;;;;;6.20;62.45;93040.00;5123149;27;20023;-60
2021/03/21 10:44:59;;;;;;;0.30;0.30;;;;;;;5.50;63.24;93036.16;5114491;27;20030;-60
2021/03/21 10:47:25;;;;;;;0.40;0.40;;;;;;;5.46;63.68;93035.72;5120920;27;20019;-61
2021/03/21 10:50:02;;;;;;;0.22;0.22;;;;;;;5.63;65.32;93023.19;5120249;27;20050;-60
2021/03/21 10:53:13;;;;;;;0.50;0.50;;;;;;;5.44;64.86;93017.06;5110002;27;20031;-61
2021/03/21 10:55:42;;;;;;;0.57;0.57;;;;;;;5.50;64.02;93019.72;5083796;28;20031;-59
2021/03/21 10:58:38;;;;;;;0.90;0.82;;;;;;;5.14;65.98;93016.63;5112462;28;20027;-61
2021/03/21 11:01:23;;;;;;;0.30;0.30;;;;;;;4.97;66.00;93014.19;5112514;28;20028;-61
2021/03/21 11:03:57;;;;;;;0.25;0.25;;;;;;;4.59;66.52;93021.75;5112615;28;20032;-61
2021/03/21 11:06:27;;;;;;;0.40;0.40;;;;;;;4.57;66.99;93016.06;5111769;28;20076;-62
2021/03/21 11:08:53;;;;;;;0.57;0.57;;;;;;;4.53;66.79;92985.56;5110908;27;20118;-60
2021/03/21 11:11:25;;;;;;;1.20;1.10;;;;;;;4.73;66.91;93008.09;5118624;27;20039;-62
2021/03/21 11:13:53;;;;;;;1.00;1.00;;;;;;;4.82;67.58;93000.25;5105264;27;20103;-56
2021/03/21 11:16:21;;;;;;;0.40;0.40;;;;;;;4.79;67.84;92997.81;5117798;27;20729;-62
2021/03/21 11:19:04;;;;;;;0.57;0.57;;;;;;;5.07;68.52;92984.41;5121521;27;20027;-60
2021/03/21 11:21:33;;;;;;;0.30;0.30;;;;;;;4.83;66.28;92982.56;5119370;27;20523;-60
2021/03/21 11:23:59;;;;;;;;;;;;;;;4.56;68.81;92984.53;5104103;27;20034;-60
2021/03/21 11:26:24;;;;;;;0.52;0.52;;;;;;;4.45;67.92;92975.75;5118799;27;19915;-57
2021/03/21 11:29:10;;;;;;;0.47;0.47;;;;;;;4.27;70.14;92971.03;5111797;28;20020;-62
2021/03/21 11:31:48;;;;;;;0.45;0.45;;;;;;;4.41;69.51;92958.91;5111859;28;20023;-60
2021/03/21 11:34:33;;;;;;;0.30;0.30;;;;;;;4.43;68.90;92956.41;5118756;27;20033;-60
2021/03/21 11:37:11;;;;;;;0.20;0.20;;;;;;;4.69;68.25;92950.25;5120078;27;20027;-62
2021/03/21 11:39:48;;;;;;;0.20;0.20;;;;;;;4.73;69.06;92947.94;5115863;27;20204;-62
2021/03/21 11:42:26;;;;;;;0.20;0.20;;;;;;;4.52;69.54;92953.28;5096813;27;20015;-54
2021/03/21 11:44:53;;;;;;;1.08;0.98;;;;;;;4.85;69.21;92954.72;5110422;28;20053;-61
2021/03/21 11:47:25;;;;;;;0.30;0.30;;;;;;;4.87;68.21;92955.69;5111844;28;20522;-60
2021/03/21 11:49:51;;;;;;;0.30;0.30;;;;;;;4.70;68.90;92962.69;5110284;28;20061;-60
2021/03/21 11:52:17;;;;;;;0.60;0.60;;;;;;;4.71;68.90;92942.28;5089964;28;20048;-61
2021/03/21 11:54:44;;;;;;;0.30;0.30;;;;;;;4.97;69.24;92956.00;5105750;27;20034;-63
2021/03/21 11:57:13;;;;;;;0.75;0.75;;;;;;;5.09;67.86;92954.53;5092080;28;20016;-62
2021/03/21 11:59:45;;;;;;;0.25;0.25;;;;;;;5.00;67.54;92949.47;5110561;28;20084;-62
2021/03/21 12:02:31;;;;;;;0.20;0.20;;;;;;;4.99;67.58;92948.00;5101660;28;20172;-61
2021/03/21 12:04:59;;;;;;;0.20;0.20;;;;;;;4.92;67.56;92945.88;5107026;28;20028;-59
2021/03/21 12:07:27;;;;;;;0.22;0.22;;;;;;;4.99;66.85;92946.00;5084389;28;20034;-60
2021/03/21 12:09:53;;;;;;;0.20;0.20;;;;;;;4.19;67.92;92910.81;5118489;27;20558;-53
2021/03/21 12:12:33;;;;;;;0.20;0.20;;;;;;;4.19;69.30;92915.53;5088146;27;20016;-57
2021/03/21 12:14:59;;;;;;;0.20;0.20;;;;;;;4.31;69.66;92930.50;5113464;27;20035;-58
2021/03/21 12:17:24;;;;;;;0.50;0.50;;;;;;;4.32;69.72;92929.25;5091859;28;20095;-59
2021/03/21 12:19:55;;;;;;;0.20;0.20;;;;;;;4.38;69.79;92913.50;5107599;28;20024;-58
2021/03/21 12:22:40;;;;;;;0.25;0.25;;;;;;;4.30;69.39;92916.09;5107739;27;20096;-61